createdAt,value
2018-12-19T00:09:26.446Z,135.93
2018-12-19T00:19:44.849Z,235.60
2018-12-19T00:30:03.597Z,284.97
2018-12-19T00:40:22.603Z,235.97
2018-12-19T00:50:41.634Z,132.03
2018-12-19T01:00:59.900Z,162.33
2018-12-19T01:11:19.298Z,168.80
2018-12-19T01:21:38.219Z,111.40
2018-12-19T01:31:58.104Z,83.50
2018-12-19T01:42:16.665Z,37.97
2018-12-19T01:52:35.700Z,40.90
2018-12-19T02:02:56.409Z,53.07
2018-12-19T02:13:15.097Z,71.07
2018-12-19T02:23:33.695Z,96.53
2018-12-19T02:33:53.740Z,83.47
2018-12-19T02:44:13.396Z,89.40
2018-12-19T02:54:33.299Z,90.17
2018-12-19T03:04:52.757Z,123.00
2018-12-19T03:15:12.156Z,134.83
2018-12-19T03:25:30.494Z,66.73
2018-12-19T03:35:50.734Z,67.80
2018-12-19T03:46:09.558Z,63.87
2018-12-19T03:56:28.107Z,67.13
2018-12-19T04:06:47.116Z,81.57
2018-12-19T04:17:05.878Z,79.83
2018-12-19T04:27:25.062Z,88.90
2018-12-19T04:37:44.372Z,81.87
2018-12-19T04:48:03.619Z,70.67
2018-12-19T04:58:22.080Z,79.57
2018-12-19T05:08:40.562Z,78.37
2018-12-19T05:18:58.711Z,73.33
2018-12-19T05:29:17.286Z,73.27
2018-12-19T05:39:36.395Z,74.40
2018-12-19T05:49:54.786Z,76.17
2018-12-19T06:00:13.387Z,85.87
2018-12-19T06:10:32.206Z,90.47
2018-12-19T06:20:51.414Z,91.13
2018-12-19T06:31:09.788Z,91.33
2018-12-19T06:41:29.132Z,80.47
2018-12-19T06:51:48.797Z,89.43
2018-12-19T07:02:08.066Z,88.03
2018-12-19T07:12:26.937Z,97.97
2018-12-19T07:22:46.441Z,94.57
2018-12-19T07:33:05.465Z,104.60
2018-12-19T07:43:24.594Z,78.90
2018-12-19T07:53:43.616Z,79.30
2018-12-19T08:04:06.007Z,74.43
2018-12-19T08:14:27.472Z,81.33
2018-12-19T08:24:46.220Z,82.13
2018-12-19T08:35:12.123Z,70.70
2018-12-19T08:57:38.859Z,66.50
2018-12-19T09:07:57.538Z,71.37
2018-12-19T09:18:16.599Z,64.70
2018-12-19T09:28:38.735Z,64.60
2018-12-19T09:38:57.300Z,60.97
2018-12-19T09:49:16.763Z,65.63
2018-12-19T09:59:35.879Z,65.10
2018-12-19T10:09:55.512Z,60.27
2018-12-19T10:20:15.002Z,58.70
2018-12-19T10:30:47.628Z,66.33
2018-12-19T10:41:05.998Z,63.43
2018-12-19T10:51:26.068Z,64.50
2018-12-19T11:01:44.957Z,49.20
2018-12-19T11:12:05.124Z,61.60
2018-12-19T11:22:23.955Z,55.83
2018-12-19T11:32:43.050Z,52.90
2018-12-19T11:43:02.451Z,55.67
2018-12-19T11:53:22.089Z,59.37
2018-12-19T12:03:40.519Z,53.80
2018-12-19T12:13:59.509Z,56.20
2018-12-19T12:24:19.395Z,144.00
2018-12-19T12:34:38.369Z,102.33
2018-12-19T12:44:57.581Z,63.60
2018-12-19T12:55:16.781Z,58.23
2018-12-19T13:05:36.089Z,54.70
2018-12-19T13:15:55.805Z,58.10
2018-12-19T13:26:16.038Z,66.67
2018-12-19T13:36:35.896Z,71.27
2018-12-19T13:46:55.059Z,66.93
2018-12-19T13:57:13.555Z,65.33
2018-12-19T14:07:32.389Z,64.40
2018-12-19T14:17:51.214Z,77.60
2018-12-19T14:28:10.071Z,68.70
2018-12-19T14:38:29.598Z,72.47
2018-12-19T14:48:48.704Z,125.30
2018-12-19T14:59:07.427Z,101.93
2018-12-19T15:09:26.470Z,139.93
2018-12-19T15:19:45.204Z,152.17
2018-12-19T15:30:04.591Z,188.27
2018-12-19T15:40:23.912Z,101.33
2018-12-19T15:50:43.107Z,81.60
2018-12-19T16:01:02.684Z,117.40
2018-12-19T16:11:21.647Z,91.80
2018-12-19T16:21:41.147Z,111.77
2018-12-19T16:32:00.599Z,107.27
2018-12-19T16:42:21.035Z,109.00
2018-12-19T16:52:41.234Z,120.70
2018-12-19T17:03:01.002Z,137.77
2018-12-19T17:13:19.777Z,188.03
2018-12-19T17:23:49.712Z,156.70
2018-12-19T17:45:23.127Z,89.37
2018-12-19T17:55:42.101Z,84.77
2018-12-19T18:06:08.479Z,124.37
2018-12-19T18:28:06.861Z,104.77
2018-12-19T18:38:26.784Z,100.30
2018-12-19T18:49:05.112Z,102.77
2018-12-19T18:59:22.929Z,162.87
2018-12-19T19:09:43.795Z,110.40
2018-12-19T19:20:03.811Z,158.07
2018-12-19T19:30:24.609Z,119.93
2018-12-19T19:40:43.466Z,153.77
2018-12-19T19:51:04.920Z,206.43
2018-12-19T20:01:24.047Z,129.57
2018-12-19T20:11:42.999Z,115.23
2018-12-19T20:22:01.820Z,218.60
2018-12-19T20:32:21.101Z,153.03
2018-12-19T20:42:40.563Z,148.80
2018-12-19T20:52:59.898Z,145.03
2018-12-19T21:03:18.913Z,151.33
2018-12-19T21:13:38.036Z,119.30
2018-12-19T21:23:57.200Z,150.97
2018-12-19T21:34:16.518Z,100.97
2018-12-19T21:44:35.327Z,101.67
2018-12-19T21:54:55.030Z,92.40
2018-12-19T22:05:13.715Z,90.53
2018-12-19T22:15:32.940Z,100.50
2018-12-19T22:25:56.671Z,94.60
2018-12-19T22:36:15.881Z,93.90
2018-12-19T22:46:35.316Z,94.20
2018-12-19T22:56:55.742Z,115.30
2018-12-19T23:07:14.346Z,108.43
2018-12-19T23:17:42.619Z,106.77
2018-12-19T23:28:21.799Z,100.30
2018-12-19T23:38:42.708Z,99.00
